Terminal Aerodrome Forecast
Issued by NWS

Home | Current Version | Previous Version | Text Only | Print | Product List | Glossary On
Versions: 1 2 3 4 5 6 7 8 9 10 11 12 13 14 15 16
000
FTUS43 KDTX 292321
TAFDET
TAF
KDET 292321Z 3000/3024 15008KT P6SM SCT035 BKN150
     FM300200 07005KT P6SM BKN035 OVC060
     FM300500 03004KT P6SM BKN018 OVC028
     FM300900 33004KT 6SM BR BKN008 OVC016
     FM301300 26005KT P6SM BKN024
     FM301600 24007KT P6SM BKN040 PROB30 3020/3023 4SM TSRA
      OVC028CB=

USA.gov is the U.S. government's official web portal to all federal, state and local government web resources and services.